Axtell, Texas
Current Conditions -  °F | °C
As of 2:51 PM on Friday 28 Nov 2014 (Local Time) from KACT Reporting Station
Clear Clear  
Wind Chill: 71°   Ceiling: Unl
Heat Index: 71°   Visibility: 10mi
Dew Point: 49°   Wind: 20mph
Humidity: 45%   Direction: 210°SSW
Pressure: 30.1"   Gusts: 29mph
Location:  31.66°N, 96.97°W
Report Text: KACT 282051Z 21017G25KT 10SM CLR 22/09 A3010 RMK AO2 PK WND 19027/2012 SLP189 T02170094 56040
Loading
Personal Weather Stations






























Interactive Weather Map New forecast layout! Learn more

10-Day Weather Forecast

Advertisements
Track Severe Weather on mobile